KOJC Airport (Johnson County Executive) Information

FAA: OJC - ICAO: KOJC

KOJC Airport Location

State Kansas
County Johnson
City Olathe
KOJC Airport is 4 miles southeast of Olathe, KS.
Latitude 38-50-51.3670N
Longitude 094-44-15.3090W
Elevation 1,096ft

KOJC Airport METARs

METAR KOJC 240853Z AUTO 19006KT 10SM CLR 14/09 A2998 RMK AO2 SLP145 T01390089 58006
Altimeter 29.98"
Temperature 13.9°C (57.0°F)
Wind 190° at 6KT
Clouds Skies are clear.
Visibility 10.0mi
Time observed: 2021-09-24T08:53:00Z

KOJC Airport Details

Status Operational
Activation October 1944
Ownership Public
Usage Public
Chart KANSAS CITY
ATC on-site Yes
Beacon schedule sunset-sunrise
Beacon color clear green

KOJC Airport Contacts

Owner JOHNSON COUNTY
Owner address 1 NEW CENTURY PARKWAY, OLATHE, KS 66031
Owner phone 913-715-6000
Manager BRENT WHEELER
Manager address PO BOX 336, NEODESHA, KS 66757
Manager phone 620-325-2831

KOJC Airport (Johnson County Executive) Radio Frequencies

KOJC (Airport) Radio Frequencies

UNICOM 122.95
Common traffic advisory frequency (CTAF) 126